createdAt,value
2019-04-23T00:00:07.268Z,4.67
2019-04-23T00:02:23.293Z,4.70
2019-04-23T00:04:52.796Z,5.03
2019-04-23T00:07:39.551Z,4.90
2019-04-23T00:10:01.241Z,4.83
2019-04-23T00:12:40.907Z,4.60
2019-04-23T00:15:04.353Z,5.00
2019-04-23T00:17:36.065Z,5.03
2019-04-23T00:19:56.070Z,5.00
2019-04-23T00:22:50.086Z,4.77
2019-04-23T00:25:41.551Z,4.90
2019-04-23T00:27:47.845Z,5.43
2019-04-23T00:30:14.692Z,5.07
2019-04-23T00:32:39.249Z,5.20
2019-04-23T00:35:14.785Z,5.10
2019-04-23T00:37:55.136Z,4.70
2019-04-23T00:40:11.959Z,5.13
2019-04-23T00:42:44.687Z,5.33
2019-04-23T00:45:12.343Z,5.27
2019-04-23T00:47:40.154Z,5.00
2019-04-23T00:50:12.353Z,5.53
2019-04-23T00:52:40.742Z,4.93
2019-04-23T00:55:12.449Z,5.50
2019-04-23T00:57:43.412Z,4.93
2019-04-23T01:00:23.951Z,5.07
2019-04-23T01:02:37.026Z,5.13
2019-04-23T01:05:11.379Z,4.50
2019-04-23T01:07:40.299Z,5.57
2019-04-23T01:10:20.254Z,5.13
2019-04-23T01:12:51.682Z,5.40
2019-04-23T01:15:21.742Z,5.27
2019-04-23T01:20:26.887Z,5.20
2019-04-23T01:22:31.495Z,5.40
2019-04-23T01:25:13.335Z,5.27
2019-04-23T01:28:23.632Z,4.93
2019-04-23T01:30:34.338Z,5.50
2019-04-23T01:33:10.986Z,5.20
2019-04-23T01:35:33.542Z,4.93
2019-04-23T01:38:06.160Z,5.70
2019-04-23T01:40:39.380Z,5.17
2019-04-23T01:43:04.267Z,5.50
2019-04-23T01:45:29.666Z,5.80
2019-04-23T01:48:04.832Z,5.43
2019-04-23T01:50:43.419Z,6.63
2019-04-23T01:53:14.773Z,5.37
2019-04-23T01:55:42.457Z,5.10
2019-04-23T01:58:27.585Z,5.60
2019-04-23T02:00:40.783Z,5.70
2019-04-23T02:03:13.603Z,5.77
2019-04-23T02:05:42.875Z,6.20
2019-04-23T02:08:11.059Z,5.53
2019-04-23T02:10:45.717Z,6.10
2019-04-23T02:15:46.422Z,5.47
2019-04-23T02:18:14.932Z,5.83
2019-04-23T02:20:46.142Z,5.87
2019-04-23T02:25:49.970Z,5.90
2019-04-23T02:28:15.967Z,6.10
2019-04-23T02:31:15.428Z,6.33
2019-04-23T02:33:39.847Z,6.17
2019-04-23T02:38:31.809Z,7.30
2019-04-23T02:48:27.451Z,5.80
2019-04-23T02:50:47.937Z,6.00
2019-04-23T02:58:28.132Z,5.90
2019-04-23T03:01:14.874Z,6.00
2019-04-23T03:05:57.340Z,6.60
2019-04-23T03:08:26.771Z,6.50
2019-04-23T03:11:04.727Z,5.77
2019-04-23T03:16:15.559Z,6.90
2019-04-23T03:24:11.354Z,6.40
2019-04-23T03:26:25.179Z,7.20
2019-04-23T03:35:09.745Z,6.50
2019-04-23T03:38:51.506Z,6.70
2019-04-23T03:43:47.015Z,6.13
2019-04-23T03:48:54.962Z,6.50
2019-04-23T03:51:31.002Z,7.40
2019-04-23T03:54:03.997Z,6.83
2019-04-23T03:58:59.278Z,7.10
2019-04-23T04:01:38.851Z,6.63
2019-04-23T04:06:39.519Z,6.43
2019-04-23T04:08:58.785Z,6.30
2019-04-23T04:14:01.624Z,6.53
2019-04-23T04:16:18.223Z,6.67
2019-04-23T04:18:54.309Z,7.40
2019-04-23T04:21:27.620Z,6.77
2019-04-23T04:29:27.535Z,6.57
2019-04-23T04:31:48.410Z,6.70
2019-04-23T04:34:26.934Z,6.63
2019-04-23T04:37:16.485Z,6.93
2019-04-23T04:39:00.032Z,7.03
2019-04-23T04:41:40.475Z,6.83
2019-04-23T04:44:38.233Z,7.30
2019-04-23T04:46:45.583Z,7.07
2019-04-23T04:51:53.626Z,6.63
2019-04-23T04:56:46.917Z,6.90
2019-04-23T04:59:08.558Z,7.40
2019-04-23T05:01:39.613Z,7.43
2019-04-23T05:04:18.264Z,7.07
2019-04-23T05:06:47.643Z,7.87
2019-04-23T05:09:16.937Z,6.97
2019-04-23T05:14:35.520Z,7.13
2019-04-23T05:22:00.525Z,7.50
2019-04-23T05:24:21.375Z,7.60
2019-04-23T05:26:51.784Z,7.60
2019-04-23T05:31:51.527Z,8.00
2019-04-23T05:34:14.542Z,7.20
2019-04-23T05:36:49.773Z,7.10
2019-04-23T05:39:26.846Z,7.67
2019-04-23T05:41:49.958Z,7.77
2019-04-23T05:44:21.633Z,7.00
2019-04-23T05:46:54.013Z,8.10
2019-04-23T05:49:22.314Z,8.10
2019-04-23T05:51:50.834Z,7.93
2019-04-23T05:56:49.097Z,7.00
2019-04-23T06:04:17.722Z,6.97
2019-04-23T06:11:51.154Z,7.70
2019-04-23T06:19:17.151Z,7.37
2019-04-23T06:21:52.483Z,7.40
2019-04-23T06:24:22.176Z,7.23
2019-04-23T06:26:49.315Z,7.00
2019-04-23T06:29:21.088Z,8.30
2019-04-23T06:34:20.353Z,8.10
2019-04-23T06:36:46.353Z,7.90
2019-04-23T06:39:28.650Z,7.53
2019-04-23T06:41:47.619Z,7.73
2019-04-23T06:44:32.334Z,7.67
2019-04-23T06:47:16.790Z,8.20
2019-04-23T06:52:10.321Z,7.50
2019-04-23T06:54:42.375Z,7.60
2019-04-23T06:57:06.533Z,7.47
2019-04-23T06:59:33.578Z,7.73
2019-04-23T07:02:06.664Z,8.30
2019-04-23T07:07:29.608Z,8.30
2019-04-23T07:09:27.461Z,7.83
2019-04-23T07:12:05.321Z,7.80
2019-04-23T07:14:35.923Z,8.93
2019-04-23T07:17:02.677Z,8.50
2019-04-23T07:19:37.059Z,7.93
2019-04-23T07:22:08.151Z,8.20
2019-04-23T07:24:28.432Z,7.70
2019-04-23T07:26:52.794Z,8.33
2019-04-23T07:29:34.893Z,8.57
2019-04-23T07:32:03.601Z,8.50
2019-04-23T07:34:30.263Z,8.10
2019-04-23T07:37:03.381Z,8.90
2019-04-23T07:39:47.176Z,9.13
2019-04-23T07:44:50.153Z,7.93
2019-04-23T07:47:21.758Z,8.50
2019-04-23T07:50:00.737Z,9.03
2019-04-23T07:52:29.764Z,8.57
2019-04-23T07:54:52.614Z,8.40
2019-04-23T07:57:21.995Z,9.13
2019-04-23T08:02:21.958Z,8.23
2019-04-23T08:05:13.081Z,9.33
2019-04-23T08:07:19.920Z,8.83
2019-04-23T08:09:47.818Z,9.40
2019-04-23T08:12:25.824Z,9.13
2019-04-23T08:17:17.550Z,9.60
2019-04-23T08:19:56.338Z,8.73
2019-04-23T08:24:59.211Z,8.17
2019-04-23T08:27:40.359Z,8.13
2019-04-23T08:29:50.858Z,8.50
2019-04-23T08:35:09.262Z,8.93
2019-04-23T08:37:36.441Z,9.20
2019-04-23T08:40:07.846Z,9.10
2019-04-23T08:47:31.869Z,8.50
2019-04-23T08:50:05.908Z,8.27
2019-04-23T08:52:29.984Z,8.40
2019-04-23T08:55:31.261Z,8.47
2019-04-23T08:57:31.907Z,8.63
2019-04-23T09:00:02.703Z,8.17
2019-04-23T09:02:47.816Z,8.70
2019-04-23T09:05:12.528Z,8.87
2019-04-23T09:07:54.118Z,8.60
2019-04-23T09:10:17.844Z,9.40
2019-04-23T09:12:35.013Z,9.40
2019-04-23T09:15:13.481Z,9.30
2019-04-23T09:17:46.439Z,9.50
2019-04-23T09:22:34.739Z,10.17
2019-04-23T09:27:34.714Z,8.70
2019-04-23T09:30:09.366Z,9.07
2019-04-23T09:35:14.414Z,10.00
2019-04-23T09:37:43.685Z,9.50
2019-04-23T09:40:29.878Z,10.03
2019-04-23T09:42:54.430Z,9.27
2019-04-23T09:45:34.216Z,9.67
2019-04-23T09:58:11.880Z,9.37
2019-04-23T10:00:43.299Z,9.93
2019-04-23T10:03:03.618Z,9.73
2019-04-23T10:05:28.786Z,9.73
2019-04-23T10:07:58.648Z,10.07
2019-04-23T10:10:18.437Z,13.27
2019-04-23T10:12:48.300Z,9.47
2019-04-23T10:15:26.196Z,9.53
2019-04-23T10:17:50.013Z,8.80
2019-04-23T10:20:18.500Z,11.20
2019-04-23T10:22:46.337Z,10.93
2019-04-23T10:25:15.304Z,10.87
2019-04-23T10:27:43.371Z,9.90
2019-04-23T10:30:12.387Z,9.57
2019-04-23T10:32:40.261Z,9.77
2019-04-23T10:35:20.950Z,9.70
2019-04-23T10:37:46.764Z,9.63
2019-04-23T10:40:15.372Z,9.93
2019-04-23T10:42:44.633Z,9.53
2019-04-23T10:45:30.210Z,10.27
2019-04-23T10:48:32.654Z,9.97
2019-04-23T10:51:06.184Z,10.90
2019-04-23T10:53:38.314Z,9.73
2019-04-23T10:56:10.802Z,10.50
2019-04-23T10:58:35.200Z,9.70
2019-04-23T11:01:15.169Z,9.73
2019-04-23T11:03:49.195Z,10.33
2019-04-23T11:06:17.713Z,10.67
2019-04-23T11:11:07.881Z,10.63
2019-04-23T11:13:39.478Z,9.93
2019-04-23T11:16:39.952Z,9.57
2019-04-23T11:18:53.880Z,9.43
2019-04-23T11:21:13.580Z,9.53
2019-04-23T11:23:40.978Z,9.10
2019-04-23T11:26:14.169Z,10.10
2019-04-23T11:28:38.328Z,9.10
2019-04-23T11:31:25.987Z,9.03
2019-04-23T11:33:50.966Z,9.93
2019-04-23T11:36:43.620Z,9.13
2019-04-23T11:41:18.907Z,8.90
2019-04-23T11:46:32.565Z,9.30
2019-04-23T11:56:22.880Z,9.47
2019-04-23T11:58:42.598Z,9.77
2019-04-23T12:01:38.604Z,10.20
2019-04-23T12:04:12.745Z,9.33
2019-04-23T12:06:38.826Z,10.37
2019-04-23T12:09:25.924Z,10.30
2019-04-23T12:12:02.176Z,9.90
2019-04-23T12:14:37.520Z,9.63
2019-04-23T12:17:18.570Z,9.60
2019-04-23T12:19:53.122Z,7.43
2019-04-23T12:22:10.389Z,9.70
2019-04-23T12:24:58.515Z,10.07
2019-04-23T12:29:33.712Z,9.50
2019-04-23T12:32:35.470Z,9.30
2019-04-23T12:34:52.832Z,9.20
2019-04-23T12:37:26.958Z,9.47
2019-04-23T12:39:56.292Z,9.30
2019-04-23T12:42:38.365Z,7.87
2019-04-23T12:44:55.137Z,9.07
2019-04-23T12:47:40.189Z,8.37
2019-04-23T12:50:13.683Z,9.43
2019-04-23T12:52:21.319Z,8.93
2019-04-23T12:55:02.845Z,9.10
2019-04-23T12:57:18.625Z,8.73
2019-04-23T13:02:27.473Z,8.47
2019-04-23T13:04:48.774Z,9.00
2019-04-23T13:07:26.406Z,9.40
2019-04-23T13:12:36.301Z,8.57
2019-04-23T13:14:56.032Z,8.60
2019-04-23T13:22:49.405Z,7.13
2019-04-23T13:25:20.191Z,6.97
2019-04-23T13:27:55.527Z,7.23
2019-04-23T13:30:25.260Z,7.97
2019-04-23T13:32:52.182Z,7.40
2019-04-23T13:35:27.998Z,7.03
2019-04-23T13:37:57.275Z,7.07
2019-04-23T13:40:16.728Z,6.70
2019-04-23T13:45:35.287Z,6.67
2019-04-23T13:47:53.275Z,6.47
2019-04-23T13:55:09.388Z,6.63
2019-04-23T13:58:02.674Z,6.53
2019-04-23T14:00:21.858Z,6.30
2019-04-23T14:02:46.103Z,6.77
2019-04-23T14:05:23.753Z,6.40
2019-04-23T14:07:56.985Z,6.00
2019-04-23T14:10:24.607Z,6.47
2019-04-23T14:12:53.442Z,6.07
2019-04-23T14:18:22.670Z,5.83
2019-04-23T14:20:28.219Z,6.00
2019-04-23T14:25:52.106Z,5.27
2019-04-23T14:28:04.277Z,5.70
2019-04-23T14:30:29.379Z,5.53
2019-04-23T14:33:03.390Z,5.77
2019-04-23T14:35:37.209Z,5.77
2019-04-23T14:38:15.884Z,6.13
2019-04-23T14:40:56.055Z,6.03
2019-04-23T14:43:19.485Z,5.83
2019-04-23T14:45:44.656Z,5.47
2019-04-23T14:48:06.790Z,5.30
2019-04-23T14:53:12.102Z,5.83
2019-04-23T14:58:10.120Z,5.10
2019-04-23T15:00:44.562Z,5.10
2019-04-23T15:03:08.697Z,5.13
2019-04-23T15:05:45.083Z,5.20
2019-04-23T15:08:04.014Z,5.27
2019-04-23T15:10:41.748Z,5.53
2019-04-23T15:13:12.566Z,5.27
2019-04-23T15:15:34.534Z,4.67
2019-04-23T15:18:13.538Z,5.03
2019-04-23T15:21:01.295Z,4.67
2019-04-23T15:23:33.474Z,4.67
2019-04-23T15:26:16.139Z,4.80
2019-04-23T15:28:06.527Z,4.70
2019-04-23T15:30:50.846Z,4.70
2019-04-23T15:35:53.347Z,4.60
2019-04-23T15:40:45.752Z,4.50
2019-04-23T15:43:17.290Z,4.10
2019-04-23T15:45:44.515Z,5.27
2019-04-23T15:48:22.488Z,4.57
2019-04-23T15:50:43.987Z,4.50
2019-04-23T15:53:05.968Z,4.87
2019-04-23T15:55:43.838Z,5.10
2019-04-23T15:58:17.462Z,4.63
2019-04-23T16:00:42.319Z,4.27
2019-04-23T16:02:42.075Z,4.90
2019-04-23T16:05:12.103Z,5.57
2019-04-23T16:07:54.945Z,4.60
2019-04-23T16:10:45.490Z,4.43
2019-04-23T16:13:12.698Z,5.00
2019-04-23T16:18:23.568Z,5.70
2019-04-23T16:23:17.891Z,5.50
2019-04-23T16:25:44.394Z,5.83
2019-04-23T16:28:23.956Z,6.00
2019-04-23T16:30:46.545Z,6.10
2019-04-23T16:33:11.085Z,6.00
2019-04-23T16:43:18.497Z,7.57
2019-04-23T16:45:51.346Z,8.33
2019-04-23T16:48:36.553Z,7.87
2019-04-23T16:51:13.634Z,7.93
2019-04-23T16:53:27.546Z,8.73
2019-04-23T16:55:55.299Z,7.90
2019-04-23T16:58:25.312Z,9.90
2019-04-23T17:01:05.455Z,9.60
2019-04-23T17:03:29.021Z,8.67
2019-04-23T17:06:01.294Z,9.30
2019-04-23T17:11:00.432Z,9.13
2019-04-23T17:13:25.553Z,8.90
2019-04-23T17:15:58.593Z,8.90
2019-04-23T17:18:28.946Z,8.53
2019-04-23T17:20:53.419Z,8.53
2019-04-23T17:23:32.846Z,8.67
2019-04-23T17:25:55.949Z,7.63
2019-04-23T17:28:21.698Z,7.53
2019-04-23T17:31:03.972Z,8.10
2019-04-23T17:33:27.625Z,8.30
2019-04-23T17:39:03.530Z,6.30
2019-04-23T17:41:31.392Z,6.77
2019-04-23T17:44:09.522Z,5.87
2019-04-23T17:49:06.057Z,4.73
2019-04-23T17:51:26.276Z,5.70
2019-04-23T17:59:04.273Z,5.03
2019-04-23T18:01:41.849Z,5.17
2019-04-23T18:04:29.652Z,4.50
2019-04-23T18:06:37.352Z,4.57
2019-04-23T18:09:08.894Z,3.70
2019-04-23T18:11:31.346Z,3.83
2019-04-23T18:14:03.822Z,4.10
2019-04-23T18:21:44.003Z,3.70
2019-04-23T18:24:22.672Z,4.07
2019-04-23T18:29:31.586Z,3.30
2019-04-23T18:34:53.881Z,3.50
2019-04-23T18:37:10.692Z,3.47
2019-04-23T18:39:37.327Z,3.73
2019-04-23T18:47:09.022Z,3.60
2019-04-23T18:49:41.043Z,4.10
2019-04-23T18:52:20.574Z,4.57
2019-04-23T18:54:34.736Z,4.33
2019-04-23T18:59:47.425Z,5.30
2019-04-23T19:02:24.117Z,4.93
2019-04-23T19:07:58.614Z,5.10
2019-04-23T19:15:25.995Z,6.47
2019-04-23T19:20:35.316Z,7.17
2019-04-23T19:22:53.153Z,7.40
2019-04-23T19:25:15.428Z,8.57
2019-04-23T19:27:47.284Z,7.67
2019-04-23T19:30:32.987Z,7.77
2019-04-23T19:32:48.968Z,8.83
2019-04-23T19:35:33.598Z,8.50
2019-04-23T19:40:20.178Z,8.53
2019-04-23T19:42:49.027Z,8.63
2019-04-23T19:45:24.527Z,9.70
2019-04-23T19:47:56.931Z,9.50
2019-04-23T19:50:27.554Z,10.63
2019-04-23T19:53:03.196Z,9.80
2019-04-23T19:55:19.480Z,9.77
2019-04-23T19:57:49.239Z,10.70
2019-04-23T20:00:17.076Z,10.60
2019-04-23T20:05:13.523Z,9.60
2019-04-23T20:07:54.212Z,10.33
2019-04-23T20:10:13.349Z,9.53
2019-04-23T20:12:44.602Z,10.13
2019-04-23T20:15:13.513Z,8.60
2019-04-23T20:20:19.125Z,9.20
2019-04-23T20:22:52.251Z,8.20
2019-04-23T20:27:58.814Z,9.67
2019-04-23T20:31:05.412Z,9.03
2019-04-23T20:35:38.481Z,9.67
2019-04-23T20:40:48.550Z,9.67
2019-04-23T20:43:07.417Z,9.60
2019-04-23T20:48:05.886Z,9.37
2019-04-23T20:50:40.999Z,9.03
2019-04-23T20:53:09.246Z,9.93
2019-04-23T20:56:01.461Z,9.73
2019-04-23T20:58:32.310Z,8.30
2019-04-23T21:01:11.131Z,8.90
2019-04-23T21:06:04.294Z,8.57
2019-04-23T21:09:07.422Z,8.83
2019-04-23T21:13:50.656Z,8.87
2019-04-23T21:16:13.160Z,8.67
2019-04-23T21:18:31.616Z,8.30
2019-04-23T21:21:00.882Z,8.43
2019-04-23T21:26:01.877Z,8.70
2019-04-23T21:33:40.866Z,8.77
2019-04-23T21:36:13.843Z,8.70
2019-04-23T21:44:08.241Z,9.10
2019-04-23T21:53:55.472Z,9.30
2019-04-23T21:56:31.172Z,9.23
2019-04-23T22:04:08.590Z,9.50
2019-04-23T22:11:53.759Z,9.83
2019-04-23T22:14:07.797Z,10.17
2019-04-23T22:16:35.543Z,9.40
2019-04-23T22:21:47.297Z,9.90
2019-04-23T22:24:04.287Z,9.63
2019-04-23T22:31:37.824Z,9.80
2019-04-23T22:34:09.210Z,8.03
2019-04-23T22:36:36.716Z,8.83
2019-04-23T22:41:36.200Z,9.13
2019-04-23T22:44:07.031Z,9.40
2019-04-23T22:46:43.281Z,9.17
2019-04-23T22:49:14.328Z,9.40
2019-04-23T22:51:55.427Z,9.13
2019-04-23T22:54:09.787Z,9.23
2019-04-23T22:56:51.909Z,10.17
2019-04-23T23:01:59.152Z,9.83
2019-04-23T23:06:55.607Z,10.37
2019-04-23T23:11:49.640Z,10.03
2019-04-23T23:14:20.141Z,9.90
2019-04-23T23:16:45.315Z,10.17
2019-04-23T23:19:23.714Z,9.40
2019-04-23T23:21:59.349Z,9.53
2019-04-23T23:24:13.727Z,10.53
2019-04-23T23:26:52.749Z,10.43
2019-04-23T23:29:15.487Z,10.67
2019-04-23T23:31:54.490Z,10.10
2019-04-23T23:34:15.481Z,10.80
2019-04-23T23:41:50.153Z,10.47
2019-04-23T23:49:20.388Z,9.93
2019-04-23T23:51:47.557Z,10.63
2019-04-23T23:56:52.317Z,10.33
2019-04-23T23:59:18.350Z,11.20
